createdAt,value
2022-12-16T00:02:18.254Z,34.15
2022-12-16T00:05:06.064Z,35.85
2022-12-16T00:07:52.776Z,28.65
2022-12-16T00:10:54.959Z,29.98
2022-12-16T00:13:43.502Z,32.22
2022-12-16T00:16:30.470Z,29.52
2022-12-16T00:19:17.239Z,25.08
2022-12-16T00:22:04.038Z,27.77
2022-12-16T00:24:50.973Z,28.60
2022-12-16T00:27:37.873Z,28.58
2022-12-16T00:30:26.044Z,35.83
2022-12-16T00:33:13.209Z,32.50
2022-12-16T00:36:00.012Z,30.95
2022-12-16T00:38:46.636Z,29.63
2022-12-16T00:41:33.393Z,34.35
2022-12-16T00:44:20.249Z,21.80
2022-12-16T00:47:08.257Z,30.02
2022-12-16T00:49:57.051Z,32.08
2022-12-16T00:52:44.165Z,27.13
2022-12-16T00:55:31.122Z,27.73
2022-12-16T00:58:18.276Z,31.77
2022-12-16T01:01:05.797Z,30.75
2022-12-16T01:03:57.296Z,28.60
2022-12-16T01:06:44.039Z,25.95
2022-12-16T01:09:30.695Z,25.00
2022-12-16T01:12:17.542Z,42.60
2022-12-16T01:15:06.876Z,43.10
2022-12-16T01:17:53.656Z,52.10
2022-12-16T01:20:43.335Z,35.80
2022-12-16T01:23:30.389Z,24.27
2022-12-16T01:26:19.004Z,28.90
2022-12-16T01:29:05.856Z,27.15
2022-12-16T01:31:52.651Z,19.77
2022-12-16T01:34:39.459Z,30.92
2022-12-16T01:37:27.844Z,28.77
2022-12-16T01:40:19.450Z,30.98
2022-12-16T01:43:11.513Z,25.63
2022-12-16T01:46:01.617Z,33.42
2022-12-16T01:48:52.339Z,18.10
2022-12-16T01:51:46.081Z,28.23
2022-12-16T01:54:41.023Z,27.65
2022-12-16T01:57:34.624Z,30.23
2022-12-16T02:00:21.583Z,34.00
2022-12-16T02:03:09.112Z,24.13
2022-12-16T02:05:56.635Z,29.63
2022-12-16T02:08:43.356Z,24.20
2022-12-16T02:12:04.504Z,30.48
2022-12-16T02:15:14.667Z,28.40
2022-12-16T02:18:11.920Z,21.85
2022-12-16T02:21:32.991Z,24.70
2022-12-16T02:24:46.422Z,27.35
2022-12-16T02:27:47.079Z,20.83
2022-12-16T02:31:06.871Z,31.60
2022-12-16T02:34:06.918Z,26.85
2022-12-16T02:37:06.859Z,24.35
2022-12-16T02:40:00.121Z,28.67
2022-12-16T02:42:50.806Z,30.23
2022-12-16T02:45:39.954Z,22.48
2022-12-16T02:48:28.299Z,16.98
2022-12-16T02:51:15.110Z,27.08
2022-12-16T02:54:01.864Z,28.25
2022-12-16T02:57:00.254Z,30.02
2022-12-16T02:59:55.532Z,20.10
2022-12-16T03:02:49.653Z,24.73
2022-12-16T03:05:41.671Z,23.02
2022-12-16T03:08:34.137Z,18.45
2022-12-16T03:11:21.519Z,23.17
2022-12-16T03:14:11.934Z,27.13
2022-12-16T03:17:00.298Z,33.90
2022-12-16T03:19:54.587Z,19.70
2022-12-16T03:22:45.829Z,24.90
2022-12-16T03:25:35.730Z,32.95
2022-12-16T03:28:34.020Z,26.02
2022-12-16T03:31:31.222Z,20.85
2022-12-16T03:34:26.789Z,22.63
2022-12-16T03:37:15.581Z,28.40
2022-12-16T03:40:07.148Z,25.02
2022-12-16T03:42:55.245Z,28.30
2022-12-16T03:45:44.148Z,27.27
2022-12-16T03:48:31.217Z,38.33
2022-12-16T03:51:18.619Z,28.92
2022-12-16T03:54:05.638Z,24.98
2022-12-16T03:56:54.385Z,20.95
2022-12-16T03:59:41.222Z,31.05
2022-12-16T04:02:28.252Z,23.35
2022-12-16T04:05:15.492Z,23.15
2022-12-16T04:08:02.445Z,20.20
2022-12-16T04:11:09.969Z,16.60
2022-12-16T04:14:15.950Z,20.52
2022-12-16T04:17:20.468Z,37.90
2022-12-16T04:20:32.627Z,30.02
2022-12-16T04:23:37.720Z,25.98
2022-12-16T04:26:24.627Z,28.02
2022-12-16T04:29:13.200Z,21.67
2022-12-16T04:32:00.648Z,22.73
2022-12-16T04:34:46.434Z,18.52
2022-12-16T04:37:50.467Z,22.55
2022-12-16T04:40:54.524Z,17.85
2022-12-16T04:43:59.292Z,23.45
2022-12-16T04:47:05.372Z,26.05
2022-12-16T04:50:09.661Z,36.47
2022-12-16T04:53:13.743Z,22.92
2022-12-16T04:56:17.939Z,20.05
2022-12-16T04:59:22.116Z,18.88
2022-12-16T05:02:27.752Z,21.40
2022-12-16T05:05:31.780Z,23.17
2022-12-16T05:08:36.088Z,20.17
2022-12-16T05:11:40.383Z,14.57
2022-12-16T05:14:44.431Z,35.25
2022-12-16T05:17:49.983Z,17.23
2022-12-16T05:20:54.310Z,18.08
2022-12-16T05:23:59.418Z,18.17
2022-12-16T05:27:03.483Z,22.55
2022-12-16T05:30:07.823Z,20.02
2022-12-16T05:33:13.325Z,22.15
2022-12-16T05:36:17.711Z,28.85
2022-12-16T05:39:22.446Z,27.70
2022-12-16T05:42:28.902Z,20.88
2022-12-16T05:45:33.127Z,25.05
2022-12-16T05:48:40.982Z,23.42
2022-12-16T05:51:48.595Z,26.35
2022-12-16T05:54:52.779Z,23.92
2022-12-16T05:57:56.857Z,17.55
2022-12-16T06:01:01.331Z,22.73
2022-12-16T06:04:07.243Z,22.35
2022-12-16T06:07:11.528Z,25.77
2022-12-16T06:10:18.904Z,17.38
2022-12-16T06:13:23.342Z,16.17
2022-12-16T06:16:27.663Z,24.92
2022-12-16T06:19:33.045Z,24.40
2022-12-16T06:22:37.325Z,16.58
2022-12-16T06:25:41.497Z,18.80
2022-12-16T06:28:46.301Z,17.38
2022-12-16T06:31:50.292Z,16.30
2022-12-16T06:34:55.771Z,19.83
2022-12-16T06:37:59.919Z,19.88
2022-12-16T06:41:03.937Z,17.33
2022-12-16T06:44:08.068Z,19.15
2022-12-16T06:47:17.868Z,10.98
2022-12-16T06:50:24.694Z,16.48
2022-12-16T06:53:28.794Z,18.17
2022-12-16T06:56:33.152Z,16.63
2022-12-16T06:59:37.436Z,19.25
2022-12-16T07:02:41.884Z,11.50
2022-12-16T07:05:47.121Z,18.35
2022-12-16T07:08:51.394Z,27.63
2022-12-16T07:11:55.495Z,17.35
2022-12-16T07:15:00.108Z,25.73
2022-12-16T07:18:04.876Z,27.35
2022-12-16T07:21:10.354Z,22.77
2022-12-16T07:24:14.411Z,37.28
2022-12-16T07:27:18.719Z,25.27
2022-12-16T07:30:24.904Z,13.82
2022-12-16T07:33:25.708Z,31.00
2022-12-16T07:36:31.196Z,24.20
2022-12-16T07:39:35.827Z,30.52
2022-12-16T07:42:40.001Z,23.50
2022-12-16T07:45:45.422Z,24.42
2022-12-16T07:48:49.264Z,22.08
2022-12-16T07:51:55.158Z,32.45
2022-12-16T07:54:59.952Z,25.67
2022-12-16T07:58:08.690Z,36.78
2022-12-16T08:01:13.112Z,25.58
2022-12-16T08:04:17.107Z,35.20
2022-12-16T08:07:23.081Z,23.20
2022-12-16T08:10:27.773Z,39.17
2022-12-16T08:13:37.528Z,30.33
2022-12-16T08:16:38.328Z,37.65
2022-12-16T08:19:44.941Z,34.67
2022-12-16T08:22:50.285Z,32.90
2022-12-16T08:29:43.179Z,30.90
2022-12-16T08:32:43.847Z,33.45
2022-12-16T08:35:48.187Z,33.55
2022-12-16T08:38:53.660Z,29.88
2022-12-16T08:41:59.836Z,38.60
2022-12-16T08:45:03.932Z,47.95
2022-12-16T08:48:08.513Z,33.97
2022-12-16T08:51:12.549Z,40.10
2022-12-16T08:54:18.279Z,41.13
2022-12-16T08:57:22.371Z,33.30
2022-12-16T09:00:28.320Z,46.65
2022-12-16T09:03:32.944Z,46.50
2022-12-16T09:06:40.409Z,45.72
2022-12-16T09:09:46.906Z,45.53
2022-12-16T09:12:51.010Z,45.30
2022-12-16T09:15:56.048Z,51.13
2022-12-16T09:19:00.495Z,51.42
2022-12-16T09:22:05.008Z,39.97
2022-12-16T09:25:10.357Z,41.53
2022-12-16T09:28:15.232Z,44.65
2022-12-16T09:31:19.329Z,55.00
2022-12-16T09:34:24.107Z,42.47
2022-12-16T09:37:29.520Z,58.70
2022-12-16T09:40:36.479Z,41.28
2022-12-16T09:43:58.873Z,58.35
2022-12-16T09:47:13.546Z,52.22
2022-12-16T09:50:18.160Z,45.35
2022-12-16T09:53:25.871Z,50.10
2022-12-16T09:56:36.525Z,62.70
2022-12-16T09:59:44.479Z,66.30
2022-12-16T10:02:48.709Z,80.53
2022-12-16T10:06:02.698Z,107.55
2022-12-16T10:09:13.743Z,108.30
2022-12-16T10:12:31.092Z,84.65
2022-12-16T10:15:47.889Z,59.05
2022-12-16T10:19:04.928Z,54.23
2022-12-16T10:22:16.576Z,54.97
2022-12-16T10:25:32.016Z,74.23
2022-12-16T10:28:43.398Z,68.82
2022-12-16T10:31:49.283Z,53.27
2022-12-16T10:34:57.325Z,57.17
2022-12-16T10:38:03.809Z,53.03
2022-12-16T10:41:12.558Z,54.50
2022-12-16T10:44:20.648Z,53.90
2022-12-16T10:47:26.284Z,66.45
2022-12-16T10:50:34.564Z,54.13
2022-12-16T10:53:45.970Z,53.28
2022-12-16T10:57:09.010Z,61.88
2022-12-16T11:00:29.330Z,56.97
2022-12-16T11:03:40.142Z,51.77
2022-12-16T11:06:47.544Z,60.10
2022-12-16T11:09:53.529Z,61.80
2022-12-16T11:12:58.928Z,54.57
2022-12-16T11:16:05.400Z,55.70
2022-12-16T11:19:11.954Z,64.53
2022-12-16T11:22:25.732Z,62.33
2022-12-16T11:25:35.645Z,69.10
2022-12-16T11:28:42.194Z,60.53
2022-12-16T11:32:01.228Z,58.87
2022-12-16T11:35:15.178Z,58.20
2022-12-16T11:38:25.403Z,60.80
2022-12-16T11:41:42.604Z,67.90
2022-12-16T11:44:49.128Z,65.80
2022-12-16T11:48:00.310Z,53.50
2022-12-16T11:51:09.977Z,47.03
2022-12-16T11:54:30.120Z,69.50
2022-12-16T11:57:41.344Z,51.97
2022-12-16T12:00:45.509Z,74.93
2022-12-16T12:04:01.354Z,62.70
2022-12-16T12:07:21.626Z,57.13
2022-12-16T12:10:40.880Z,64.07
2022-12-16T12:14:00.032Z,64.13
2022-12-16T12:17:20.211Z,98.90
2022-12-16T12:20:48.458Z,58.20
2022-12-16T12:24:05.710Z,53.00
2022-12-16T12:27:16.690Z,69.20
2022-12-16T12:30:24.532Z,52.83
2022-12-16T12:33:46.381Z,67.73
2022-12-16T12:36:57.481Z,58.13
2022-12-16T12:40:05.753Z,50.27
2022-12-16T12:43:25.994Z,71.60
2022-12-16T12:46:35.660Z,56.70
2022-12-16T12:49:48.438Z,66.07
2022-12-16T12:53:14.471Z,60.17
2022-12-16T12:56:27.840Z,61.93
2022-12-16T12:59:39.136Z,70.00
2022-12-16T13:02:47.843Z,79.03
2022-12-16T13:05:56.584Z,60.20
2022-12-16T13:09:12.507Z,65.57
2022-12-16T13:12:45.681Z,66.63
2022-12-16T13:15:54.809Z,64.00
2022-12-16T13:18:59.009Z,55.13
2022-12-16T13:22:06.607Z,70.53
2022-12-16T13:25:12.475Z,49.97
2022-12-16T13:28:32.283Z,60.50
2022-12-16T13:31:39.287Z,63.87
2022-12-16T13:34:48.053Z,73.93
2022-12-16T13:37:53.236Z,71.03
2022-12-16T13:41:11.981Z,66.13
2022-12-16T13:44:18.371Z,58.37
2022-12-16T13:47:50.268Z,57.23
2022-12-16T13:50:56.884Z,71.03
2022-12-16T13:54:06.230Z,68.70
2022-12-16T13:57:12.047Z,63.93
2022-12-16T14:00:18.503Z,60.67
2022-12-16T14:03:28.140Z,60.87
2022-12-16T14:06:37.696Z,61.93
2022-12-16T14:09:53.737Z,69.30
2022-12-16T14:13:11.215Z,63.73
2022-12-16T14:16:23.647Z,71.30
2022-12-16T14:19:42.773Z,63.70
2022-12-16T14:23:10.713Z,64.00
2022-12-16T14:26:24.779Z,61.97
2022-12-16T14:29:38.025Z,72.07
2022-12-16T14:32:47.693Z,50.90
2022-12-16T14:35:51.843Z,55.10
2022-12-16T14:39:05.528Z,70.00
2022-12-16T14:42:10.277Z,57.83
2022-12-16T14:45:16.056Z,55.47
2022-12-16T14:48:20.258Z,57.93
2022-12-16T14:51:50.549Z,58.33
2022-12-16T14:54:57.490Z,59.23
2022-12-16T14:58:01.928Z,51.07
2022-12-16T15:01:15.536Z,52.53
2022-12-16T15:04:24.436Z,65.57
2022-12-16T15:07:33.580Z,57.13
2022-12-16T15:10:41.128Z,65.03
2022-12-16T15:13:48.000Z,57.27
2022-12-16T15:19:15.676Z,61.77
2022-12-16T15:20:31.538Z,52.60
2022-12-16T15:23:41.261Z,62.87
2022-12-16T15:26:49.309Z,61.67
2022-12-16T15:29:55.398Z,57.03
2022-12-16T15:33:02.408Z,55.50
2022-12-16T15:36:06.355Z,61.27
2022-12-16T15:39:10.612Z,49.17
2022-12-16T15:42:18.227Z,59.30
2022-12-16T15:45:22.856Z,49.00
2022-12-16T15:48:37.608Z,57.17
2022-12-16T15:51:48.241Z,62.93
2022-12-16T15:54:52.650Z,52.63
2022-12-16T15:57:57.838Z,51.00
2022-12-16T16:01:15.675Z,56.70
2022-12-16T16:04:21.700Z,53.40
2022-12-16T16:07:34.335Z,55.70
2022-12-16T16:10:41.549Z,55.63
2022-12-16T16:13:45.551Z,55.50
2022-12-16T16:16:49.840Z,56.30
2022-12-16T16:20:01.628Z,62.17
2022-12-16T16:23:07.800Z,64.40
2022-12-16T16:26:11.962Z,64.00
2022-12-16T16:29:17.264Z,50.57
2022-12-16T16:32:23.468Z,70.10
2022-12-16T16:35:37.696Z,63.23
2022-12-16T16:38:42.121Z,55.37
2022-12-16T16:41:46.186Z,76.00
2022-12-16T16:44:51.826Z,61.33
2022-12-16T16:47:56.902Z,60.40
2022-12-16T16:51:03.414Z,51.57
2022-12-16T16:54:08.471Z,61.87
2022-12-16T16:57:13.493Z,61.17
2022-12-16T17:00:18.564Z,61.07
2022-12-16T17:03:23.011Z,63.80
2022-12-16T17:06:28.426Z,60.67
2022-12-16T17:09:32.719Z,52.13
2022-12-16T17:12:39.001Z,54.13
2022-12-16T17:15:48.295Z,54.90
2022-12-16T17:18:52.773Z,56.23
2022-12-16T17:21:58.237Z,54.20
2022-12-16T17:25:02.400Z,56.87
2022-12-16T17:28:06.483Z,57.00
2022-12-16T17:31:16.065Z,53.53
2022-12-16T17:34:39.890Z,57.63
2022-12-16T17:37:48.140Z,58.27
2022-12-16T17:40:52.275Z,55.37
2022-12-16T17:43:56.469Z,55.50
2022-12-16T17:47:00.775Z,55.63
2022-12-16T17:50:16.315Z,49.73
2022-12-16T17:53:22.121Z,59.93
2022-12-16T17:56:22.984Z,59.27
2022-12-16T17:59:27.526Z,53.90
2022-12-16T18:02:32.196Z,54.07
2022-12-16T18:05:42.505Z,55.00
2022-12-16T18:08:51.584Z,56.20
2022-12-16T18:11:56.617Z,47.80
2022-12-16T18:15:04.140Z,61.73
2022-12-16T18:18:09.961Z,50.30
2022-12-16T18:21:15.608Z,61.83
2022-12-16T18:24:24.388Z,48.27
2022-12-16T18:27:28.536Z,58.67
2022-12-16T18:30:33.836Z,55.00
2022-12-16T18:33:37.958Z,54.77
2022-12-16T18:36:42.056Z,52.57
2022-12-16T18:39:47.483Z,62.73
2022-12-16T18:42:51.579Z,53.83
2022-12-16T18:45:55.776Z,56.53
2022-12-16T18:48:59.790Z,62.03
2022-12-16T18:52:04.019Z,68.13
2022-12-16T18:55:12.036Z,56.93
2022-12-16T18:58:49.164Z,59.07
2022-12-16T19:01:42.161Z,50.53
2022-12-16T19:04:46.466Z,59.20
2022-12-16T19:07:50.598Z,59.27
2022-12-16T19:10:56.097Z,62.10
2022-12-16T19:14:00.536Z,63.07
2022-12-16T19:17:04.649Z,64.40
2022-12-16T19:20:08.990Z,61.97
2022-12-16T19:23:13.129Z,60.73
2022-12-16T19:26:19.403Z,60.53
2022-12-16T19:29:23.741Z,64.33
2022-12-16T19:32:28.018Z,75.37
2022-12-16T19:35:32.282Z,66.97
2022-12-16T19:38:36.785Z,56.03
2022-12-16T19:41:42.857Z,69.47
2022-12-16T19:44:47.142Z,57.93
2022-12-16T19:47:51.639Z,63.53
2022-12-16T19:50:57.948Z,70.03
2022-12-16T19:54:07.425Z,62.97
2022-12-16T19:57:12.834Z,62.30
2022-12-16T20:00:17.001Z,62.37
2022-12-16T20:03:21.222Z,78.27
2022-12-16T20:06:28.351Z,60.77
2022-12-16T20:09:32.512Z,67.10
2022-12-16T20:12:38.216Z,68.27
2022-12-16T20:15:42.356Z,72.57
2022-12-16T20:18:46.453Z,83.73
2022-12-16T20:21:56.168Z,88.53
2022-12-16T20:25:16.733Z,83.97
2022-12-16T20:28:25.012Z,76.33
2022-12-16T20:31:29.500Z,91.93
2022-12-16T20:34:34.172Z,101.80
2022-12-16T20:37:46.624Z,80.60
2022-12-16T20:40:50.437Z,84.70
2022-12-16T20:43:56.374Z,94.97
2022-12-16T20:47:00.429Z,93.63
2022-12-16T20:50:04.626Z,92.53
2022-12-16T20:53:08.709Z,102.83
2022-12-16T20:56:13.450Z,96.23
2022-12-16T20:59:19.220Z,105.37
2022-12-16T21:02:26.840Z,95.13
2022-12-16T21:05:34.481Z,95.20
2022-12-16T21:08:38.499Z,102.97
2022-12-16T21:11:42.792Z,109.33
2022-12-16T21:14:48.403Z,116.67
2022-12-16T21:17:52.611Z,123.90
2022-12-16T21:20:59.692Z,110.87
2022-12-16T21:24:05.236Z,101.77
2022-12-16T21:27:09.342Z,104.23
2022-12-16T21:30:15.213Z,131.80
2022-12-16T21:33:19.220Z,111.73
2022-12-16T21:36:25.390Z,118.30
2022-12-16T21:39:29.655Z,111.87
2022-12-16T21:42:36.796Z,110.27
2022-12-16T21:45:45.159Z,127.57
2022-12-16T21:48:49.331Z,104.77
2022-12-16T21:51:53.372Z,93.63
2022-12-16T21:55:00.510Z,125.60
2022-12-16T21:58:04.885Z,118.23
2022-12-16T22:01:14.532Z,101.40
2022-12-16T22:04:18.595Z,131.20
2022-12-16T22:07:22.876Z,107.73
2022-12-16T22:10:39.136Z,125.90
2022-12-16T22:13:43.098Z,127.23
2022-12-16T22:16:48.611Z,119.37
2022-12-16T22:19:56.144Z,126.37
2022-12-16T22:23:14.997Z,115.07
2022-12-16T22:26:20.027Z,116.03
2022-12-16T22:29:24.352Z,112.00
2022-12-16T22:32:29.748Z,104.83
2022-12-16T22:35:34.473Z,126.77
2022-12-16T22:38:38.624Z,119.17
2022-12-16T22:41:42.967Z,116.70
2022-12-16T22:44:46.991Z,121.90
2022-12-16T22:47:52.624Z,96.43
2022-12-16T22:50:58.766Z,118.33
2022-12-16T22:54:03.175Z,114.10
2022-12-16T22:57:07.362Z,125.93
2022-12-16T23:00:11.622Z,130.90
2022-12-16T23:03:17.344Z,109.50
2022-12-16T23:06:21.944Z,126.27
2022-12-16T23:09:26.143Z,101.97
2022-12-16T23:12:30.364Z,99.37
2022-12-16T23:15:35.174Z,98.27
2022-12-16T23:18:40.496Z,101.27
2022-12-16T23:21:45.136Z,117.80
2022-12-16T23:24:49.934Z,99.10
2022-12-16T23:27:54.101Z,120.47
2022-12-16T23:30:58.307Z,106.13
2022-12-16T23:34:03.744Z,133.37
2022-12-16T23:37:07.896Z,102.53
2022-12-16T23:40:11.997Z,94.27
2022-12-16T23:43:16.167Z,100.73
2022-12-16T23:46:20.481Z,102.97
2022-12-16T23:49:26.865Z,102.17
2022-12-16T23:52:30.941Z,102.07
2022-12-16T23:55:35.677Z,80.90
2022-12-16T23:58:45.181Z,98.43
